createdAt,value
2018-12-11T00:01:22.756Z,94.77
2018-12-11T00:03:52.015Z,94.82
2018-12-11T00:06:20.935Z,94.29
2018-12-11T00:08:49.874Z,93.95
2018-12-11T00:11:18.766Z,94.10
2018-12-11T00:13:47.686Z,94.06
2018-12-11T00:16:16.635Z,94.28
2018-12-11T00:18:45.605Z,94.37
2018-12-11T00:21:14.498Z,93.97
2018-12-11T00:23:43.427Z,94.79
2018-12-11T00:26:12.321Z,94.29
2018-12-11T00:28:41.255Z,94.17
2018-12-11T00:31:10.167Z,94.50
2018-12-11T00:33:39.066Z,94.14
2018-12-11T00:36:07.997Z,94.59
2018-12-11T00:38:36.890Z,94.15
2018-12-11T00:41:05.797Z,94.70
2018-12-11T00:43:34.671Z,93.90
2018-12-11T00:46:03.685Z,93.70
2018-12-11T00:48:32.907Z,94.26
2018-12-11T00:51:01.784Z,93.67
2018-12-11T00:53:30.684Z,94.20
2018-12-11T00:55:59.611Z,93.97
2018-12-11T00:58:28.550Z,93.53
2018-12-11T01:00:57.492Z,93.74
2018-12-11T02:32:15.067Z,93.02
2018-12-11T02:34:44.161Z,92.67
2018-12-11T02:37:13.424Z,93.00
2018-12-11T02:39:42.567Z,92.71
2018-12-11T02:42:11.820Z,92.98
2018-12-11T02:44:41.630Z,92.82
2018-12-11T02:47:11.759Z,92.76
2018-12-11T02:49:40.983Z,92.94
2018-12-11T02:52:10.147Z,92.90
2018-12-11T03:09:20.245Z,93.48
2018-12-11T03:11:49.458Z,93.74
2018-12-11T03:14:18.722Z,93.43
2018-12-11T03:16:48.217Z,93.17
2018-12-11T03:22:31.787Z,92.86
2018-12-11T03:25:01.098Z,92.71
2018-12-11T03:27:30.362Z,92.72
2018-12-11T03:29:59.595Z,93.05
2018-12-11T03:32:28.850Z,92.88
2018-12-11T03:34:58.120Z,93.28
2018-12-11T03:37:27.844Z,93.26
2018-12-11T03:39:57.185Z,93.44
2018-12-11T03:42:32.347Z,93.48
2018-12-11T03:45:01.687Z,92.86
2018-12-11T03:47:30.944Z,93.30
2018-12-11T03:50:00.241Z,93.13
2018-12-11T04:01:22.737Z,93.35
2018-12-11T04:03:51.636Z,93.06
2018-12-11T04:06:20.706Z,93.80
2018-12-11T04:08:49.623Z,93.21
2018-12-11T04:11:18.502Z,92.47
2018-12-11T04:13:47.433Z,92.78
2018-12-11T04:16:17.293Z,92.69
2018-12-11T04:18:46.176Z,92.43
2018-12-11T04:21:15.111Z,92.83
2018-12-11T04:23:44.002Z,92.98
2018-12-11T04:26:12.867Z,92.77
2018-12-11T04:28:42.218Z,93.55
2018-12-11T04:31:11.147Z,92.82
2018-12-11T04:33:40.172Z,92.89
2018-12-11T04:36:09.140Z,92.54
2018-12-11T04:38:38.345Z,92.68
2018-12-11T04:41:07.229Z,92.25
2018-12-11T04:43:36.127Z,92.12
2018-12-11T04:46:05.027Z,91.78
2018-12-11T04:48:34.046Z,92.48
2018-12-11T04:51:03.048Z,92.59
2018-12-11T04:53:31.941Z,92.31
2018-12-11T04:56:00.869Z,92.00
2018-12-11T04:58:29.755Z,92.87
2018-12-11T05:00:58.727Z,91.75
2018-12-11T05:03:27.948Z,92.29
2018-12-11T05:05:57.072Z,91.72
2018-12-11T05:08:26.574Z,91.58
2018-12-11T05:10:55.452Z,92.07
2018-12-11T05:13:24.375Z,92.12
2018-12-11T05:15:53.663Z,92.25
2018-12-11T05:18:22.546Z,91.83
2018-12-11T05:20:51.556Z,91.50
2018-12-11T05:23:20.447Z,91.81
2018-12-11T05:25:49.318Z,91.83
2018-12-11T05:28:18.229Z,92.14
2018-12-11T05:30:47.356Z,91.71
2018-12-11T05:33:16.470Z,92.53
2018-12-11T05:35:45.459Z,91.86
2018-12-11T05:38:14.468Z,92.20
2018-12-11T05:40:43.490Z,91.65
2018-12-11T05:43:12.362Z,91.04
2018-12-11T05:45:41.254Z,90.92
2018-12-11T05:48:10.155Z,90.93
2018-12-11T05:50:39.106Z,90.99
2018-12-11T05:53:08.098Z,90.90
2018-12-11T05:55:36.988Z,91.00
2018-12-11T05:58:05.934Z,90.69
2018-12-11T06:00:34.814Z,90.53
2018-12-11T06:03:03.782Z,90.51
2018-12-11T06:05:32.778Z,90.01
2018-12-11T06:08:01.783Z,90.19
2018-12-11T06:10:30.717Z,91.28
2018-12-11T06:12:59.682Z,90.90
2018-12-11T06:15:28.659Z,90.37
2018-12-11T06:17:57.665Z,90.74
2018-12-11T06:20:26.713Z,90.56
2018-12-11T06:22:55.715Z,90.55
2018-12-11T06:25:24.642Z,90.19
2018-12-11T06:27:53.611Z,90.62
2018-12-11T06:30:22.546Z,90.54
2018-12-11T06:32:51.573Z,90.50
2018-12-11T06:35:20.529Z,90.11
2018-12-11T06:37:49.443Z,91.29
2018-12-11T06:40:18.409Z,90.49
2018-12-11T06:42:47.363Z,90.67
2018-12-11T06:45:16.321Z,90.61
2018-12-11T06:47:45.278Z,89.84
2018-12-11T06:50:14.167Z,90.69
2018-12-11T06:52:43.101Z,90.54
2018-12-11T06:55:12.021Z,90.03
2018-12-11T06:57:41.012Z,90.40
2018-12-11T07:00:10.030Z,90.36
2018-12-11T07:02:39.028Z,89.92
2018-12-11T07:05:08.129Z,90.80
2018-12-11T07:07:37.057Z,90.67
2018-12-11T07:10:07.028Z,90.73
2018-12-11T07:12:35.994Z,89.96
2018-12-11T07:15:06.277Z,90.54
2018-12-11T07:17:35.218Z,90.14
2018-12-11T07:20:04.919Z,90.23
2018-12-11T07:22:33.860Z,90.13
2018-12-11T07:25:02.819Z,89.79
2018-12-11T07:27:31.753Z,89.88
2018-12-11T07:30:00.828Z,90.94
2018-12-11T07:32:29.814Z,90.75
2018-12-11T07:34:58.787Z,90.65
2018-12-11T07:37:27.768Z,90.43
2018-12-11T07:40:03.522Z,90.01
2018-12-11T07:42:32.507Z,90.71
2018-12-11T07:45:01.480Z,90.32
2018-12-11T07:47:30.370Z,89.92
2018-12-11T07:49:59.347Z,90.20
2018-12-11T07:52:28.249Z,90.26
2018-12-11T07:55:03.114Z,90.02
2018-12-11T07:57:32.141Z,89.88
2018-12-11T08:00:01.142Z,90.27
2018-12-11T08:02:30.113Z,89.98
2018-12-11T08:04:59.071Z,90.34
2018-12-11T08:07:28.050Z,90.06
2018-12-11T08:09:57.023Z,89.95
2018-12-11T08:12:25.953Z,90.07
2018-12-11T08:14:54.890Z,90.77
2018-12-11T08:17:23.871Z,90.11
2018-12-11T08:19:52.861Z,89.98
2018-12-11T08:22:21.795Z,89.86
2018-12-11T08:24:50.828Z,90.18
2018-12-11T08:27:19.797Z,89.94
2018-12-11T08:29:48.688Z,89.22
2018-12-11T08:32:17.684Z,89.95
2018-12-11T08:34:46.687Z,89.79
2018-12-11T08:37:15.649Z,89.87
2018-12-11T08:39:44.639Z,89.80
2018-12-11T08:42:13.562Z,89.91
2018-12-11T08:44:42.601Z,89.00
2018-12-11T08:47:11.712Z,89.39
2018-12-11T08:49:40.736Z,90.51
2018-12-11T08:52:09.665Z,90.17
2018-12-11T08:54:38.984Z,89.49
2018-12-11T08:57:08.113Z,89.52
2018-12-11T08:59:37.079Z,90.07
2018-12-11T09:02:06.618Z,89.60
2018-12-11T09:04:36.546Z,89.23
2018-12-11T09:07:05.509Z,88.92
2018-12-11T09:09:34.692Z,88.38
2018-12-11T09:12:03.647Z,88.31
2018-12-11T09:14:37.324Z,88.25
2018-12-11T09:17:10.258Z,88.04
2018-12-11T09:19:37.561Z,88.38
2018-12-11T09:22:06.891Z,88.26
2018-12-11T09:24:35.847Z,87.95
2018-12-11T09:27:04.930Z,87.32
2018-12-11T09:29:35.686Z,87.66
2018-12-11T09:32:06.108Z,87.88
2018-12-11T09:34:35.046Z,88.45
2018-12-11T09:37:04.038Z,88.26
2018-12-11T09:39:33.089Z,88.33
2018-12-11T09:42:07.084Z,87.50
2018-12-11T09:44:33.057Z,87.56
2018-12-11T09:47:02.036Z,87.67
2018-12-11T09:49:31.240Z,87.43
2018-12-11T09:52:00.639Z,87.61
2018-12-11T09:54:30.695Z,87.68
2018-12-11T09:57:00.777Z,87.23
2018-12-11T09:59:30.741Z,87.57
2018-12-11T10:01:59.691Z,87.14
2018-12-11T10:04:28.814Z,87.83
2018-12-11T10:06:58.358Z,87.44
2018-12-11T10:09:27.535Z,87.21
2018-12-11T10:11:56.507Z,86.70
2018-12-11T10:14:25.518Z,85.84
2018-12-11T10:16:54.551Z,85.93
2018-12-11T10:19:23.558Z,85.98
2018-12-11T10:21:52.631Z,85.87
2018-12-11T10:24:24.751Z,85.76
2018-12-11T10:26:54.933Z,85.58
2018-12-11T10:29:23.952Z,85.91
2018-12-11T10:31:52.921Z,85.63
2018-12-11T10:34:22.831Z,86.07
2018-12-11T10:36:53.755Z,86.03
2018-12-11T10:39:22.742Z,86.00
2018-12-11T10:41:51.745Z,85.15
2018-12-11T10:44:20.736Z,86.03
2018-12-11T10:46:49.967Z,85.78
2018-12-11T10:49:18.960Z,84.87
2018-12-11T10:51:48.583Z,84.70
2018-12-11T10:54:17.553Z,85.16
2018-12-11T10:56:46.602Z,84.79
2018-12-11T10:59:15.684Z,84.71
2018-12-11T11:01:47.192Z,85.34
2018-12-11T11:04:16.882Z,85.25
2018-12-11T11:06:46.999Z,85.20
2018-12-11T11:09:16.680Z,85.61
2018-12-11T11:11:46.102Z,84.80
2018-12-11T11:14:15.360Z,85.18
2018-12-11T11:16:44.368Z,84.17
2018-12-11T11:19:13.365Z,84.92
2018-12-11T11:21:42.533Z,84.72
2018-12-11T11:24:11.446Z,84.37
2018-12-11T11:26:40.395Z,84.54
2018-12-11T11:29:09.377Z,84.25
2018-12-11T11:31:38.326Z,84.20
2018-12-11T11:34:07.242Z,84.66
2018-12-11T11:36:36.186Z,84.33
2018-12-11T11:39:07.889Z,84.03
2018-12-11T11:41:36.840Z,83.55
2018-12-11T11:44:06.575Z,84.02
2018-12-11T11:46:35.642Z,84.08
2018-12-11T11:49:04.635Z,84.20
2018-12-11T11:51:33.622Z,84.19
2018-12-11T11:54:02.727Z,84.10
2018-12-11T11:56:31.644Z,84.33
2018-12-11T11:59:00.645Z,84.43
2018-12-11T12:01:34.571Z,83.67
2018-12-11T12:04:04.247Z,84.32
2018-12-11T12:06:35.162Z,84.15
2018-12-11T12:09:06.294Z,84.79
2018-12-11T12:11:36.791Z,84.05
2018-12-11T12:14:06.386Z,84.50
2018-12-11T12:16:35.886Z,84.15
2018-12-11T12:19:05.500Z,84.22
2018-12-11T12:21:37.597Z,84.40
2018-12-11T12:24:06.579Z,84.66
2018-12-11T12:26:35.496Z,83.91
2018-12-11T12:29:04.962Z,84.78
2018-12-11T12:31:34.345Z,84.57
2018-12-11T12:34:03.305Z,84.08
2018-12-11T12:36:32.309Z,84.61
2018-12-11T12:39:01.325Z,83.69
2018-12-11T12:41:30.269Z,84.39
2018-12-11T12:43:59.226Z,84.05
2018-12-11T12:46:28.253Z,83.94
2018-12-11T12:48:57.157Z,83.92
2018-12-11T12:51:26.094Z,84.05
2018-12-11T12:53:55.047Z,84.56
2018-12-11T12:56:24.103Z,84.12
2018-12-11T12:58:53.085Z,83.50
2018-12-11T13:01:22.045Z,84.62
2018-12-11T13:03:51.126Z,83.69
2018-12-11T13:06:20.293Z,83.89
2018-12-11T13:08:49.240Z,84.07
2018-12-11T13:11:18.214Z,83.99
2018-12-11T13:13:47.155Z,84.02
2018-12-11T13:16:16.122Z,83.59
2018-12-11T13:18:45.067Z,83.86
2018-12-11T13:21:14.418Z,84.25
2018-12-11T13:23:43.349Z,84.20
2018-12-11T13:26:13.853Z,83.65
2018-12-11T13:28:42.840Z,83.18
2018-12-11T13:31:11.898Z,83.69
2018-12-11T13:33:41.666Z,83.54
2018-12-11T13:36:11.606Z,84.97
2018-12-11T13:38:42.060Z,84.20
2018-12-11T13:41:11.104Z,83.59
2018-12-11T13:43:40.453Z,83.56
2018-12-11T13:46:09.356Z,83.51
2018-12-11T13:48:38.463Z,83.60
2018-12-11T13:51:07.476Z,83.26
2018-12-11T13:53:36.395Z,83.67
2018-12-11T13:56:05.701Z,83.16
2018-12-11T13:58:34.738Z,83.91
2018-12-11T14:01:04.145Z,83.78
2018-12-11T14:03:33.080Z,84.11
2018-12-11T14:06:02.118Z,83.44
2018-12-11T14:08:31.658Z,83.54
2018-12-11T14:11:00.579Z,84.03
2018-12-11T14:13:30.339Z,83.95
2018-12-11T14:15:59.269Z,84.00
2018-12-11T14:18:32.040Z,84.17
2018-12-11T14:21:01.096Z,83.68
2018-12-11T14:23:30.205Z,84.41
2018-12-11T14:25:59.233Z,83.40
2018-12-11T14:28:28.361Z,83.23
2018-12-11T14:30:57.328Z,83.77
2018-12-11T14:33:26.293Z,83.48
2018-12-11T14:35:55.306Z,84.06
2018-12-11T14:38:24.214Z,83.07
2018-12-11T14:40:53.105Z,83.73
2018-12-11T14:43:22.142Z,84.08
2018-12-11T14:45:51.065Z,84.30
2018-12-11T14:48:20.032Z,83.78
2018-12-11T14:50:48.924Z,83.85
2018-12-11T14:53:17.848Z,84.22
2018-12-11T14:55:46.837Z,84.19
2018-12-11T14:58:16.741Z,84.33
2018-12-11T15:00:45.611Z,83.89
2018-12-11T15:03:14.601Z,84.58
2018-12-11T15:05:43.548Z,84.88
2018-12-11T15:08:12.431Z,84.12
2018-12-11T15:10:41.429Z,84.09
2018-12-11T15:13:10.534Z,84.14
2018-12-11T15:15:39.669Z,83.90
2018-12-11T15:18:08.647Z,84.52
2018-12-11T15:20:37.599Z,83.89
2018-12-11T15:23:06.552Z,84.24
2018-12-11T15:25:35.442Z,84.80
2018-12-11T15:28:04.373Z,85.40
2018-12-11T15:30:33.430Z,84.58
2018-12-11T15:33:02.396Z,84.01
2018-12-11T15:35:31.295Z,84.46
2018-12-11T15:38:00.335Z,84.51
2018-12-11T15:40:29.237Z,85.17
2018-12-11T15:42:58.443Z,84.71
2018-12-11T15:45:27.411Z,85.40
2018-12-11T15:47:56.342Z,85.41
2018-12-11T15:50:25.300Z,84.92
2018-12-11T15:52:54.203Z,84.77
2018-12-11T15:55:23.157Z,85.36
2018-12-11T15:57:52.037Z,85.19
2018-12-11T16:00:21.190Z,85.46
2018-12-11T16:02:50.194Z,85.19
2018-12-11T16:05:19.117Z,84.86
2018-12-11T16:07:48.061Z,85.08
2018-12-11T16:10:17.142Z,86.01
2018-12-11T16:12:46.072Z,84.99
2018-12-11T16:15:14.977Z,85.16
2018-12-11T16:17:43.889Z,85.15
2018-12-11T16:20:13.009Z,85.68
2018-12-11T16:22:42.026Z,85.44
2018-12-11T16:25:10.968Z,86.23
2018-12-11T16:27:40.253Z,85.60
2018-12-11T16:30:09.364Z,85.83
2018-12-11T16:32:38.273Z,86.44
2018-12-11T16:35:07.653Z,86.36
2018-12-11T16:37:36.919Z,86.58
2018-12-11T16:40:06.412Z,86.00
2018-12-11T16:42:35.353Z,86.63
2018-12-11T16:45:04.766Z,87.06
2018-12-11T16:47:33.681Z,86.40
2018-12-11T16:50:02.649Z,87.06
2018-12-11T16:52:32.257Z,87.41
2018-12-11T16:55:01.208Z,87.78
2018-12-11T16:57:30.403Z,87.85
2018-12-11T16:59:59.325Z,86.86
2018-12-11T17:02:28.264Z,86.80
2018-12-11T17:04:57.223Z,87.33
2018-12-11T17:07:26.408Z,87.76
2018-12-11T17:09:55.439Z,87.54
2018-12-11T17:12:24.633Z,87.88
2018-12-11T17:14:53.689Z,87.22
2018-12-11T17:17:23.196Z,88.04
2018-12-11T17:19:52.135Z,88.31
2018-12-11T17:22:21.023Z,88.26
2018-12-11T17:24:49.922Z,88.49
2018-12-11T17:27:18.839Z,88.04
2018-12-11T17:29:47.801Z,87.71
2018-12-11T17:32:16.763Z,88.01
2018-12-11T17:34:45.673Z,87.93
2018-12-11T17:37:14.586Z,87.53
2018-12-11T17:39:43.542Z,87.70
2018-12-11T17:42:12.414Z,87.60
2018-12-11T17:44:41.294Z,88.19
2018-12-11T17:47:10.209Z,87.60
2018-12-11T17:49:39.214Z,87.59
2018-12-11T17:52:08.138Z,88.16
2018-12-11T17:54:37.143Z,88.13
2018-12-11T17:57:06.091Z,88.16
2018-12-11T17:59:34.949Z,88.09
2018-12-11T18:02:06.360Z,89.19
2018-12-11T18:04:35.301Z,88.04
2018-12-11T18:07:04.232Z,88.68
2018-12-11T18:09:33.193Z,89.24
2018-12-11T18:12:02.186Z,89.43
2018-12-11T18:14:31.088Z,89.36
2018-12-11T18:17:00.012Z,89.78
2018-12-11T18:19:28.945Z,89.66
2018-12-11T18:21:57.850Z,89.18
2018-12-11T18:24:26.845Z,90.07
2018-12-11T18:26:55.775Z,90.15
2018-12-11T18:29:24.655Z,89.68
2018-12-11T18:31:53.969Z,90.05
2018-12-11T18:34:23.081Z,89.59
2018-12-11T18:36:52.070Z,90.27
2018-12-11T18:39:21.070Z,90.69
2018-12-11T18:41:50.187Z,91.50
2018-12-11T18:44:20.050Z,91.06
2018-12-11T18:46:48.979Z,91.08
2018-12-11T18:49:17.966Z,91.43
2018-12-11T18:51:46.912Z,91.53
2018-12-11T18:54:15.802Z,90.22
2018-12-11T18:56:45.017Z,91.16
2018-12-11T18:59:14.130Z,91.59
2018-12-11T19:01:43.120Z,90.32
2018-12-11T19:04:12.036Z,90.95
2018-12-11T19:06:40.952Z,90.90
2018-12-11T19:09:09.894Z,90.71
2018-12-11T19:11:38.806Z,89.64
2018-12-11T19:14:07.765Z,90.53
2018-12-11T19:16:36.699Z,90.62
2018-12-11T19:19:05.650Z,90.31
2018-12-11T19:21:34.645Z,90.77
2018-12-11T19:24:25.302Z,90.97
2018-12-11T19:26:54.326Z,91.24
2018-12-11T19:29:23.357Z,91.62
2018-12-11T19:31:52.455Z,91.34
2018-12-11T19:34:21.836Z,91.76
2018-12-11T19:36:50.851Z,90.92
2018-12-11T19:39:19.760Z,91.59
2018-12-11T19:41:48.696Z,91.78
2018-12-11T19:44:17.714Z,91.24
2018-12-11T19:46:46.584Z,90.93
2018-12-11T19:49:15.524Z,90.89
2018-12-11T19:51:44.466Z,91.06
2018-12-11T19:54:13.430Z,90.77
2018-12-11T19:56:42.310Z,91.40
2018-12-11T19:59:11.332Z,91.41
2018-12-11T20:01:40.312Z,91.41
2018-12-11T20:04:09.974Z,91.90
2018-12-11T20:06:38.892Z,92.01
2018-12-11T20:09:08.548Z,91.61
2018-12-11T20:11:37.475Z,91.09
2018-12-11T20:14:06.486Z,91.32
2018-12-11T20:16:35.482Z,91.03
2018-12-11T20:19:04.491Z,90.62
2018-12-11T20:21:33.507Z,91.75
2018-12-11T20:24:05.055Z,91.70
2018-12-11T20:26:38.978Z,91.30
2018-12-11T20:29:04.291Z,91.83
2018-12-11T20:31:33.255Z,92.30
2018-12-11T20:34:04.606Z,92.02
2018-12-11T20:36:33.555Z,91.82
2018-12-11T20:39:02.592Z,91.78
2018-12-11T20:41:31.596Z,91.98
2018-12-11T20:44:00.542Z,92.70
2018-12-11T20:46:29.419Z,92.00
2018-12-11T20:48:58.379Z,92.13
2018-12-11T20:51:27.319Z,91.30
2018-12-11T20:53:56.296Z,92.61
2018-12-11T20:56:25.245Z,91.98
2018-12-11T20:58:54.245Z,91.74
2018-12-11T21:01:23.159Z,91.66
2018-12-11T21:03:52.121Z,92.03
2018-12-11T21:06:21.081Z,92.04
2018-12-11T21:08:49.994Z,92.20
2018-12-11T21:11:18.956Z,91.80
2018-12-11T21:13:47.923Z,91.08
2018-12-11T21:16:16.897Z,90.97
2018-12-11T21:18:46.100Z,90.48
2018-12-11T21:21:15.090Z,90.67
2018-12-11T21:23:45.690Z,91.64
2018-12-11T21:26:14.624Z,91.59
2018-12-11T21:28:43.501Z,91.86
2018-12-11T21:31:12.406Z,91.23
2018-12-11T21:33:41.368Z,91.25
2018-12-11T21:36:10.351Z,91.75
2018-12-11T21:38:40.221Z,90.65
2018-12-11T21:41:09.409Z,91.08
2018-12-11T21:43:38.285Z,92.05
2018-12-11T21:46:07.277Z,92.52
2018-12-11T21:48:36.340Z,92.27
2018-12-11T21:51:05.455Z,92.70
2018-12-11T21:53:34.412Z,92.60
2018-12-11T21:56:03.333Z,92.27
2018-12-11T21:58:32.226Z,92.28
2018-12-11T22:01:01.208Z,92.27
2018-12-11T22:03:30.576Z,92.30
2018-12-11T22:05:59.829Z,92.39
2018-12-11T22:08:28.792Z,92.73
2018-12-11T22:10:57.749Z,92.86
2018-12-11T22:13:26.621Z,91.97
2018-12-11T22:15:55.572Z,91.86
2018-12-11T22:18:25.094Z,92.55
2018-12-11T22:20:54.037Z,92.92
2018-12-11T22:23:22.973Z,92.88
2018-12-11T22:25:51.944Z,93.43
2018-12-11T22:28:20.878Z,92.59
2018-12-11T22:30:49.819Z,93.27
2018-12-11T22:33:18.803Z,93.88
2018-12-11T22:35:47.860Z,93.74
2018-12-11T22:38:16.866Z,92.87
2018-12-11T22:40:45.810Z,93.91
2018-12-11T22:43:14.744Z,94.31
2018-12-11T22:45:44.224Z,94.09
2018-12-11T22:48:13.183Z,93.26
2018-12-11T22:50:42.071Z,92.96
2018-12-11T22:53:10.967Z,93.27
2018-12-11T22:55:40.107Z,93.00
2018-12-11T22:58:09.336Z,92.95
2018-12-11T23:00:38.989Z,92.87
2018-12-11T23:03:08.412Z,92.98
2018-12-11T23:05:37.317Z,93.39
2018-12-11T23:08:06.604Z,93.55
2018-12-11T23:10:35.807Z,94.08
2018-12-11T23:13:05.115Z,94.36
2018-12-11T23:15:34.374Z,93.52
2018-12-11T23:18:03.286Z,93.82
2018-12-11T23:20:32.316Z,94.18
2018-12-11T23:23:02.952Z,93.87
2018-12-11T23:25:34.865Z,94.23
2018-12-11T23:28:07.811Z,93.74
2018-12-11T23:30:43.624Z,93.47
2018-12-11T23:33:12.618Z,93.49
2018-12-11T23:35:41.481Z,92.83
2018-12-11T23:38:10.377Z,92.52
2018-12-11T23:40:39.245Z,92.78
2018-12-11T23:43:08.255Z,93.02
2018-12-11T23:45:37.126Z,93.49
2018-12-11T23:48:05.993Z,93.03
2018-12-11T23:50:35.056Z,93.41
2018-12-11T23:53:04.377Z,93.10
2018-12-11T23:55:35.544Z,94.26
2018-12-11T23:58:04.728Z,93.13
